PRINT OUT SECTION, show »

METAR EPBY 171230Z 25013KT 230V290 CAVOK 25/13 Q1018=

METAR EPGD 171230Z 24012KT 9999 FEW049 23/12 Q1017 =

METAR EPKK 171230Z VRB03KT 9999 SCT046 29/18 Q1018 =

METAR EPKT 171230Z 29005KT CAVOK 25/16 Q1020 =

METAR EPLB 171230Z VRB02KT 9999 FEW043 30/17 Q1018 =

METAR EPLL 171230Z 29006KT 250V320 CAVOK 26/14 Q1019 =

METAR EPML 171230Z AUTO 04007KT 010V070 9999 NCD 29/15 Q1018=

METAR EPMO 171230Z 24009KT 200V280 CAVOK 28/15 Q1018 =

METAR EPPO 171230Z 23010KT 210V280 CAVOK 24/13 Q1019 =

METAR EPRA 171230Z 20005KT 150V240 9999 SCT045 28/19 Q1018=

METAR EPRZ 171230Z 06006KT 9999 -TSRA BKN020CB 24/21 Q1018 =

METAR EPSC 171230Z 24008KT 200V280 9999 SCT035 21/14 Q1018 =

METAR EPSY 171230Z 25011KT 220V280 CAVOK 27/13 Q1018=

METAR EPWA 171230Z 26008KT 9999 FEW042 28/16 Q1018 NOSIG=

METAR EPWR 171230Z 15007KT 9999 FEW040 25/13 Q1020 =

METAR EPZG 171230Z 25010KT 210V290 CAVOK 24/13 Q1019 =
 METAR EPPO
Lokalizacja:EPPO Poznań Ławica
Czas:12:30 UTC
Średni kierunek wiatru:230 °
Średnia prędkość wiatru:10 węzłów
Kierunek wiatru zmienia się od:210 °
Kierunek wiatru zmienia się do:280 °
CAVOK:Widzialność 10 km i więcej, zjawisko: NIL, zachmurzenie: NSC
Temperatura powietrza:24 °C
Temperatura punktu rosy:13 °C
Ciśnienie QNH:1019 hPa